createdAt,value
2024-03-20T00:01:28.349Z,99568.67
2024-03-20T00:06:33.870Z,99559.98
2024-03-20T00:11:36.713Z,99558.38
2024-03-20T00:16:38.506Z,99560.88
2024-03-20T00:21:40.368Z,99563.52
2024-03-20T00:26:44.351Z,99566.55
2024-03-20T00:31:46.230Z,99566.27
2024-03-20T00:36:49.407Z,99564.76
2024-03-20T00:41:52.218Z,99556.83
2024-03-20T00:46:54.249Z,99555.11
2024-03-20T00:51:56.320Z,99544.35
2024-03-20T00:56:58.076Z,99530.30
2024-03-20T01:01:59.725Z,99520.36
2024-03-20T01:07:01.428Z,99522.66
2024-03-20T01:12:03.428Z,99515.51
2024-03-20T01:17:05.764Z,99516.27
2024-03-20T01:22:07.609Z,99506.95
2024-03-20T01:27:09.322Z,99502.07
2024-03-20T01:32:11.103Z,99503.77
2024-03-20T01:37:13.064Z,99508.04
2024-03-20T01:42:14.946Z,99509.80
2024-03-20T01:47:16.763Z,99506.67
2024-03-20T01:52:18.761Z,99507.11
2024-03-20T01:57:20.601Z,99517.72
2024-03-20T02:02:23.290Z,99519.49
2024-03-20T02:07:24.990Z,99516.06
2024-03-20T02:12:26.800Z,99512.52
2024-03-20T02:17:28.568Z,99511.92
2024-03-20T02:22:30.440Z,99514.50
2024-03-20T02:27:32.221Z,99513.60
2024-03-20T02:32:33.958Z,99510.04
2024-03-20T02:37:35.791Z,99514.84
2024-03-20T02:42:37.585Z,99508.86
2024-03-20T02:47:39.561Z,99503.46
2024-03-20T02:52:41.447Z,99497.34
2024-03-20T02:57:43.033Z,99498.31
2024-03-20T03:02:44.706Z,99497.42
2024-03-20T03:07:46.469Z,99498.63
2024-03-20T03:12:48.604Z,99499.94
2024-03-20T03:17:55.504Z,99508.84
2024-03-20T03:22:57.389Z,99511.28
2024-03-20T03:27:59.255Z,99507.88
2024-03-20T03:33:00.944Z,99510.62
2024-03-20T03:38:02.598Z,99510.23
2024-03-20T03:43:04.595Z,99514.63
2024-03-20T03:48:06.885Z,99511.45
2024-03-20T03:53:08.785Z,99514.15
2024-03-20T03:58:10.781Z,99514.36
2024-03-20T04:03:12.485Z,99511.77
2024-03-20T04:08:14.845Z,99508.13
2024-03-20T04:13:16.577Z,99506.20
2024-03-20T04:18:18.747Z,99508.16
2024-03-20T04:23:20.534Z,99505.22
2024-03-20T04:28:22.502Z,99504.35
2024-03-20T04:33:24.305Z,99499.84
2024-03-20T04:38:25.943Z,99493.88
2024-03-20T04:43:27.844Z,99493.89
2024-03-20T04:48:29.670Z,99495.61
2024-03-20T04:53:31.512Z,99488.53
2024-03-20T04:58:33.659Z,99495.10
2024-03-20T05:03:35.403Z,99496.05
2024-03-20T05:08:37.503Z,99491.44
2024-03-20T05:13:40.621Z,99490.02
2024-03-20T05:18:42.505Z,99491.27
2024-03-20T05:23:44.385Z,99497.27
2024-03-20T05:28:46.351Z,99495.02
2024-03-20T05:33:48.246Z,99496.16
2024-03-20T05:38:50.453Z,99497.34
2024-03-20T05:43:52.333Z,99494.02
2024-03-20T05:48:54.039Z,99494.33
2024-03-20T05:53:55.780Z,99493.98
2024-03-20T05:58:57.669Z,99499.35
2024-03-20T06:04:00.264Z,99496.19
2024-03-20T06:09:17.380Z,99493.41
2024-03-20T06:14:19.283Z,99491.56
2024-03-20T06:19:21.067Z,99495.42
2024-03-20T06:24:22.921Z,99502.98
2024-03-20T06:29:24.630Z,99500.95
2024-03-20T06:34:26.676Z,99509.16
2024-03-20T06:39:28.403Z,99506.88
2024-03-20T06:44:30.293Z,99510.42
2024-03-20T06:49:34.640Z,99511.00
2024-03-20T06:54:36.500Z,99513.27
2024-03-20T06:59:38.603Z,99516.56
2024-03-20T07:04:40.596Z,99519.41
2024-03-20T07:09:43.414Z,99510.81
2024-03-20T07:14:45.185Z,99516.25
2024-03-20T07:19:48.713Z,99516.89
2024-03-20T07:24:50.490Z,99521.98
2024-03-20T07:29:52.201Z,99516.39
2024-03-20T07:34:54.463Z,99510.80
2024-03-20T07:39:56.327Z,99509.63
2024-03-20T07:44:58.035Z,99509.66
2024-03-20T07:49:59.746Z,99511.01
2024-03-20T07:55:03.763Z,99498.34
2024-03-20T08:00:16.928Z,99499.75
2024-03-20T08:05:18.672Z,99497.19
2024-03-20T08:10:20.724Z,99482.93
2024-03-20T08:15:22.743Z,99480.64
2024-03-20T08:20:24.869Z,99477.98
2024-03-20T08:25:26.563Z,99481.52
2024-03-20T08:30:28.520Z,99481.13
2024-03-20T08:35:30.399Z,99488.48
2024-03-20T08:40:33.332Z,99494.04
2024-03-20T08:45:35.613Z,99496.52
2024-03-20T08:50:46.689Z,99492.16
2024-03-20T08:55:49.262Z,99494.27
2024-03-20T09:00:51.019Z,99491.19
2024-03-20T09:05:53.042Z,99488.03
2024-03-20T09:10:55.132Z,99487.97
2024-03-20T09:15:58.911Z,99485.13
2024-03-20T09:21:00.993Z,99479.74
2024-03-20T09:26:02.966Z,99480.91
2024-03-20T09:31:05.628Z,99474.05
2024-03-20T09:36:07.689Z,99473.75
2024-03-20T09:41:15.849Z,99467.37
2024-03-20T09:46:20.777Z,99469.02
2024-03-20T09:51:22.629Z,99467.27
2024-03-20T09:56:27.024Z,99460.34
2024-03-20T10:01:28.856Z,99456.11
2024-03-20T10:06:32.784Z,99447.81
2024-03-20T10:11:35.838Z,99441.77
2024-03-20T10:16:38.298Z,99432.94
2024-03-20T10:21:41.426Z,99433.21
2024-03-20T10:26:43.299Z,99432.28
2024-03-20T10:31:45.293Z,99432.34
2024-03-20T10:36:47.543Z,99427.79
2024-03-20T10:41:50.204Z,99418.05
2024-03-20T10:46:53.496Z,99413.36
2024-03-20T10:51:56.113Z,99413.89
2024-03-20T10:56:58.498Z,99402.81
2024-03-20T11:02:05.491Z,99391.55
2024-03-20T11:07:22.561Z,99387.33
2024-03-20T11:12:32.299Z,99389.34
2024-03-20T11:17:37.680Z,99384.20
2024-03-20T11:22:39.446Z,99379.45
2024-03-20T11:27:41.335Z,99375.76
2024-03-20T11:32:45.776Z,99374.36
2024-03-20T11:37:48.513Z,99369.36
2024-03-20T11:42:52.149Z,99366.44
2024-03-20T11:47:54.827Z,99369.41
2024-03-20T11:52:56.670Z,99367.00
2024-03-20T11:58:00.351Z,99362.34
2024-03-20T12:03:02.111Z,99360.59
2024-03-20T12:08:05.354Z,99351.64
2024-03-20T12:13:14.036Z,99344.73
2024-03-20T12:18:15.853Z,99343.40
2024-03-20T12:23:17.656Z,99339.13
2024-03-20T12:28:19.310Z,99335.96
2024-03-20T12:33:21.915Z,99328.95
2024-03-20T12:38:23.891Z,99326.59
2024-03-20T12:43:26.326Z,99324.88
2024-03-20T12:48:28.166Z,99322.44
2024-03-20T12:53:30.330Z,99320.21
2024-03-20T12:58:34.635Z,99317.18
2024-03-20T13:03:37.148Z,99317.66
2024-03-20T13:08:38.955Z,99310.79
2024-03-20T13:13:40.683Z,99305.81
2024-03-20T13:18:49.557Z,99302.39
2024-03-20T13:24:10.060Z,99300.67
2024-03-20T13:29:12.023Z,99298.10
2024-03-20T13:34:14.750Z,99291.39
2024-03-20T13:39:19.529Z,99290.38
2024-03-20T13:44:25.204Z,99287.10
2024-03-20T13:49:27.069Z,99276.88
2024-03-20T13:54:29.031Z,99273.98
2024-03-20T13:59:31.559Z,99274.36
2024-03-20T14:04:33.129Z,99272.48
2024-03-20T14:09:35.101Z,99270.32
2024-03-20T14:14:37.938Z,99269.73
2024-03-20T14:19:40.503Z,99271.34
2024-03-20T14:24:43.578Z,99271.08
2024-03-20T14:29:47.089Z,99266.09
2024-03-20T14:34:49.125Z,99258.93
2024-03-20T14:39:50.925Z,99255.64
2024-03-20T14:44:52.794Z,99250.89
2024-03-20T14:49:55.503Z,99250.28
2024-03-20T14:54:58.854Z,99253.35
2024-03-20T15:00:00.824Z,99257.70
2024-03-20T15:05:02.793Z,99258.14
2024-03-20T15:10:05.404Z,99253.87
2024-03-20T15:15:12.725Z,99246.59
2024-03-20T15:20:13.917Z,99249.25
2024-03-20T15:25:18.628Z,99244.70
2024-03-20T15:30:21.130Z,99246.11
2024-03-20T15:35:23.023Z,99248.48
2024-03-20T15:40:25.066Z,99246.73
2024-03-20T15:45:28.238Z,99248.67
2024-03-20T15:50:30.037Z,99248.25
2024-03-20T15:55:34.243Z,99246.64
2024-03-20T16:00:37.288Z,99252.49
2024-03-20T16:05:39.102Z,99251.31
2024-03-20T16:10:41.025Z,99256.72
2024-03-20T16:15:46.423Z,99258.35
2024-03-20T16:20:48.117Z,99264.40
2024-03-20T16:25:49.981Z,99265.79
2024-03-20T16:30:52.405Z,99269.14
2024-03-20T16:35:54.220Z,99269.67
2024-03-20T16:40:56.151Z,99272.08
2024-03-20T16:45:58.427Z,99273.60
2024-03-20T16:51:00.216Z,99272.77
2024-03-20T16:56:02.188Z,99276.05
2024-03-20T17:01:04.586Z,99277.86
2024-03-20T17:06:07.839Z,99278.80
2024-03-20T17:11:09.825Z,99276.08
2024-03-20T17:16:11.706Z,99278.38
2024-03-20T17:21:13.609Z,99281.78
2024-03-20T17:26:15.346Z,99280.48
2024-03-20T17:31:17.182Z,99285.08
2024-03-20T17:36:19.220Z,99282.53
2024-03-20T17:41:20.925Z,99278.60
2024-03-20T17:46:22.883Z,99276.17
2024-03-20T17:51:25.081Z,99280.99
2024-03-20T17:56:30.575Z,99280.59
2024-03-20T18:01:32.237Z,99278.63
2024-03-20T18:06:34.141Z,99283.65
2024-03-20T18:11:37.164Z,99285.52
2024-03-20T18:16:39.007Z,99293.08
2024-03-20T18:21:40.917Z,99291.77
2024-03-20T18:26:42.995Z,99299.16
2024-03-20T18:31:44.975Z,99308.81
2024-03-20T18:36:53.040Z,99314.95
2024-03-20T18:42:08.775Z,99319.09
2024-03-20T18:47:10.707Z,99317.35
2024-03-20T18:52:13.830Z,99316.14
2024-03-20T18:57:15.790Z,99319.92
2024-03-20T19:02:17.699Z,99323.89
2024-03-20T19:07:19.481Z,99322.39
2024-03-20T19:12:21.291Z,99323.53
2024-03-20T19:17:24.463Z,99323.80
2024-03-20T19:22:26.594Z,99327.13
2024-03-20T19:27:28.568Z,99326.24
2024-03-20T19:32:30.243Z,99328.17
2024-03-20T19:37:32.634Z,99325.70
2024-03-20T19:42:34.410Z,99324.75
2024-03-20T19:47:38.634Z,99328.16
2024-03-20T19:52:40.549Z,99333.40
2024-03-20T19:57:42.948Z,99338.56
2024-03-20T20:02:45.803Z,99334.13
2024-03-20T20:07:48.729Z,99335.07
2024-03-20T20:12:52.319Z,99337.61
2024-03-20T20:17:54.084Z,99336.55
2024-03-20T20:22:55.849Z,99340.10
2024-03-20T20:27:57.664Z,99335.83
2024-03-20T20:32:59.868Z,99337.26
2024-03-20T20:38:04.713Z,99335.61
2024-03-20T20:43:06.728Z,99331.15
2024-03-20T20:48:08.527Z,99334.04
2024-03-20T20:53:10.959Z,99333.81
2024-03-20T20:58:12.815Z,99332.92
2024-03-20T21:03:33.216Z,99330.55
2024-03-20T21:08:53.740Z,99329.05
2024-03-20T21:14:14.442Z,99327.73
2024-03-20T21:19:34.763Z,99325.73
2024-03-20T21:24:37.157Z,99326.80
2024-03-20T21:29:39.136Z,99331.52
2024-03-20T21:34:40.921Z,99334.67
2024-03-20T21:39:44.178Z,99332.79
2024-03-20T21:44:48.272Z,99329.33
2024-03-20T21:49:50.581Z,99330.67
2024-03-20T21:54:53.215Z,99333.90
2024-03-20T21:59:55.683Z,99333.98
2024-03-20T22:04:57.803Z,99333.63
2024-03-20T22:10:23.185Z,99329.40
2024-03-20T22:15:23.488Z,99324.25
2024-03-20T22:20:25.879Z,99329.88
2024-03-20T22:25:27.771Z,99330.05
2024-03-20T22:30:29.707Z,99332.00
2024-03-20T22:35:31.513Z,99328.84
2024-03-20T22:40:33.315Z,99325.00
2024-03-20T22:45:35.260Z,99325.13
2024-03-20T22:50:37.038Z,99317.51
2024-03-20T22:55:38.874Z,99319.10
2024-03-20T23:00:47.895Z,99317.24
2024-03-20T23:05:59.178Z,99312.19
2024-03-20T23:11:02.844Z,99312.09
2024-03-20T23:16:05.896Z,99314.05
2024-03-20T23:21:07.695Z,99310.59
2024-03-20T23:26:09.504Z,99308.56
2024-03-20T23:31:12.698Z,99312.63
2024-03-20T23:36:14.395Z,99315.23
2024-03-20T23:41:16.065Z,99309.34
2024-03-20T23:46:17.858Z,99303.58
2024-03-20T23:51:19.737Z,99300.13
2024-03-20T23:56:21.539Z,99297.59
